Time;durP1;ratioP1;P1;durP2;ratioP2;P2;SDS_P1;SDS_P2;PMS_P1;PMS_P2;Temp;Humidity;BMP_temperature;BMP_pressure;BME280_temperature;BME280_humidity;BME280_pressure;Samples;Min_cycle;Max_cycle;Signal;HPM_P1;HPM_P2
2023/06/12 00:00:30;;;;;;;2.23;2.07;;;;;;;21.06;39.19;101516.75;5037318;27;96944;-48
2023/06/12 00:02:57;;;;;;;2.60;2.40;;;;;;;21.04;39.43;101511.72;5036875;27;97643;-48
2023/06/12 00:05:23;;;;;;;2.90;2.47;;;;;;;21.02;39.31;101516.31;5035473;27;97786;-48
2023/06/12 00:07:55;;;;;;;2.53;2.33;;;;;;;20.95;39.60;101514.22;5037991;27;97082;-48
2023/06/12 00:10:21;;;;;;;2.33;2.20;;;;;;;20.91;39.51;101520.91;5036504;27;97501;-47
2023/06/12 00:12:46;;;;;;;2.80;2.60;;;;;;;20.88;39.72;101512.84;5035307;27;98683;-47
2023/06/12 00:15:12;;;;;;;4.13;2.70;;;;;;;20.86;39.70;101518.22;5039347;27;97456;-48
2023/06/12 00:17:37;;;;;;;2.43;2.30;;;;;;;20.85;39.82;101508.34;5036507;27;97232;-48
2023/06/12 00:20:05;;;;;;;4.03;2.67;;;;;;;20.84;39.91;101513.16;5039170;27;97206;-47
2023/06/12 00:22:30;;;;;;;2.60;2.40;;;;;;;20.83;39.97;101516.53;5036313;27;97243;-48
2023/06/12 00:24:56;;;;;;;2.83;2.63;;;;;;;20.83;40.51;101511.69;5036827;27;97964;-48
2023/06/12 00:27:21;;;;;;;2.30;2.20;;;;;;;20.81;40.22;101519.88;5037970;27;97036;-48
2023/06/12 00:29:46;;;;;;;2.33;2.23;;;;;;;20.83;40.06;101514.47;5034819;27;97161;-48
2023/06/12 00:32:11;;;;;;;2.60;2.40;;;;;;;20.82;40.17;101512.97;5039094;27;97887;-48
2023/06/12 00:34:37;;;;;;;2.67;2.50;;;;;;;20.80;40.30;101521.16;5036960;27;104944;-47
2023/06/12 00:37:05;;;;;;;3.27;2.67;;;;;;;20.76;40.25;101512.34;5035924;27;96951;-47
2023/06/12 00:39:30;;;;;;;2.20;2.10;;;;;;;20.71;40.44;101513.22;5038433;27;96957;-47
2023/06/12 00:41:55;;;;;;;2.57;2.37;;;;;;;20.68;40.49;101514.31;5037105;27;97229;-48
2023/06/12 00:44:21;;;;;;;2.20;2.10;;;;;;;20.63;40.66;101509.59;5036648;27;96721;-48
2023/06/12 00:46:46;;;;;;;2.60;2.40;;;;;;;20.63;40.62;101520.78;5037017;27;97255;-48
2023/06/12 00:49:11;;;;;;;2.50;2.40;;;;;;;20.55;40.63;101511.53;5040480;27;96833;-47
2023/06/12 00:51:39;;;;;;;3.10;2.80;;;;;;;20.48;40.93;101519.84;5036668;27;97993;-48
2023/06/12 00:54:04;;;;;;;2.70;2.50;;;;;;;20.45;41.00;101509.72;5038327;27;96976;-48
2023/06/12 00:56:30;;;;;;;2.80;2.53;;;;;;;20.43;40.98;101509.50;5037630;27;96722;-48
2023/06/12 00:58:55;;;;;;;2.90;2.70;;;;;;;20.38;40.92;101510.41;5038632;27;97653;-47
2023/06/12 01:01:25;;;;;;;2.53;2.33;;;;;;;20.30;41.16;101512.34;5036733;27;97307;-47
2023/06/12 01:03:58;;;;;;;2.87;2.67;;;;;;;20.27;41.36;101511.38;5038589;27;98357;-48
2023/06/12 01:06:47;;;;;;;2.53;2.33;;;;;;;20.26;42.50;101507.09;5039644;27;97009;-47
2023/06/12 01:09:30;;;;;;;7.57;2.63;;;;;;;20.20;41.34;101503.63;5036382;27;96776;-48
2023/06/12 01:11:56;;;;;;;2.90;2.70;;;;;;;20.16;41.50;101500.38;5035348;27;97642;-47
2023/06/12 01:14:22;;;;;;;2.43;2.30;;;;;;;20.16;41.60;101495.56;5035773;27;97606;-47
2023/06/12 01:16:47;;;;;;;3.73;2.63;;;;;;;20.16;41.70;101497.59;5038958;27;96885;-48
2023/06/12 01:19:16;;;;;;;9.30;2.80;;;;;;;20.18;41.95;101500.63;5039604;27;97117;-47
2023/06/12 01:21:46;;;;;;;2.37;2.17;;;;;;;20.18;41.71;101503.41;5034307;27;96950;-48
2023/06/12 01:24:50;;;;;;;6.20;2.90;;;;;;;20.13;43.37;101510.63;5036657;27;97326;-47
2023/06/12 01:27:34;;;;;;;2.63;2.50;;;;;;;20.01;43.12;101511.34;5034259;27;97260;-47
2023/06/12 01:30:24;;;;;;;2.17;2.07;;;;;;;19.95;42.97;101507.91;5038484;27;97034;-47
2023/06/12 01:32:50;;;;;;;2.93;2.67;;;;;;;19.91;42.19;101507.50;5035206;27;97599;-48
2023/06/12 01:35:23;;;;;;;2.70;2.50;;;;;;;19.91;42.61;101505.47;5035925;27;97064;-48
2023/06/12 01:38:05;;;;;;;2.60;2.40;;;;;;;19.91;42.95;101507.50;5038714;27;97087;-47
2023/06/12 01:40:32;;;;;;;3.10;2.80;;;;;;;19.90;42.28;101511.56;5037691;27;96928;-47
2023/06/12 01:42:58;;;;;;;3.37;2.93;;;;;;;19.88;42.29;101514.91;5036538;27;97839;-47
2023/06/12 01:45:23;;;;;;;3.40;3.20;;;;;;;19.86;42.37;101511.91;5036430;27;97215;-47
2023/06/12 01:47:49;;;;;;;2.60;2.40;;;;;;;19.83;42.42;101512.22;5036094;27;96853;-47
2023/06/12 01:50:15;;;;;;;2.50;2.30;;;;;;;19.78;42.75;101511.03;5033568;27;97031;-48
2023/06/12 01:52:40;;;;;;;3.10;2.90;;;;;;;19.79;42.69;101506.22;5036484;27;99198;-48
2023/06/12 01:55:07;;;;;;;7.63;3.00;;;;;;;19.80;42.81;101510.50;5038169;27;97574;-48
2023/06/12 01:57:32;;;;;;;3.10;2.90;;;;;;;19.78;42.80;101502.66;5036645;27;97028;-47
2023/06/12 01:59:59;;;;;;;2.90;2.70;;;;;;;19.75;42.78;101505.75;5034593;27;96953;-47
2023/06/12 02:02:26;;;;;;;3.13;2.93;;;;;;;19.78;42.82;101507.50;5035777;27;97465;-48
2023/06/12 02:04:52;;;;;;;2.73;2.53;;;;;;;19.78;42.88;101505.47;5034737;27;97766;-47
2023/06/12 02:07:17;;;;;;;3.17;2.97;;;;;;;19.80;42.95;101508.47;5038574;27;96941;-47
2023/06/12 02:09:43;;;;;;;2.80;2.60;;;;;;;19.81;42.88;101509.22;5033273;27;97327;-47
2023/06/12 02:12:08;;;;;;;2.90;2.70;;;;;;;19.79;43.00;101503.41;5036177;27;97441;-48
2023/06/12 02:14:34;;;;;;;3.27;2.83;;;;;;;19.78;43.10;101507.50;5037256;27;97165;-47
2023/06/12 02:17:02;;;;;;;2.57;2.47;;;;;;;19.76;43.00;101510.81;5035402;27;97661;-47
2023/06/12 02:19:28;;;;;;;3.40;2.73;;;;;;;19.71;43.21;101506.09;5037460;27;96677;-48
2023/06/12 02:21:55;;;;;;;2.60;2.40;;;;;;;19.67;43.27;101510.47;5036988;27;97580;-47
2023/06/12 02:24:25;;;;;;;3.20;2.93;;;;;;;19.66;43.90;101506.19;5039211;27;97444;-48
2023/06/12 02:26:51;;;;;;;3.50;2.43;;;;;;;19.64;43.52;101509.50;5033953;27;97164;-48
2023/06/12 02:29:17;;;;;;;5.47;3.20;;;;;;;19.65;43.40;101508.22;5035298;27;97330;-47
2023/06/12 02:31:42;;;;;;;2.90;2.70;;;;;;;19.67;43.45;101505.66;5036178;27;97163;-48
2023/06/12 02:34:07;;;;;;;3.40;3.13;;;;;;;19.67;43.51;101504.91;5034299;27;96973;-48
2023/06/12 02:36:40;;;;;;;4.20;3.00;;;;;;;19.70;43.42;101512.22;5035100;27;97031;-48
2023/06/12 02:39:06;;;;;;;3.30;2.97;;;;;;;19.72;43.59;101507.59;5035396;27;96802;-47
2023/06/12 02:41:32;;;;;;;5.07;3.17;;;;;;;19.74;43.45;101504.25;5034776;27;96999;-48
2023/06/12 02:43:57;;;;;;;2.73;2.53;;;;;;;19.75;43.57;101503.72;5034237;27;99326;-48
2023/06/12 02:46:22;;;;;;;6.80;2.83;;;;;;;19.75;43.71;101508.53;5034750;27;99573;-47
2023/06/12 02:48:48;;;;;;;3.80;2.87;;;;;;;19.72;43.61;101506.84;5035448;27;97707;-48
2023/06/12 02:51:13;;;;;;;3.40;3.10;;;;;;;19.69;43.62;101507.91;5033842;27;97130;-48
2023/06/12 02:53:39;;;;;;;2.77;2.57;;;;;;;19.67;43.85;101514.03;5037843;27;97441;-48
2023/06/12 02:56:04;;;;;;;2.80;2.60;;;;;;;19.66;43.63;101511.78;5037079;27;97054;-48
2023/06/12 02:58:29;;;;;;;4.30;2.90;;;;;;;19.62;43.89;101508.53;5032996;27;97017;-47
2023/06/12 03:00:56;;;;;;;3.40;3.10;;;;;;;19.58;43.86;101514.44;5033169;27;105429;-47
2023/06/12 03:03:21;;;;;;;3.23;3.00;;;;;;;19.55;43.77;101517.56;5035166;27;97049;-48
2023/06/12 03:05:47;;;;;;;2.90;2.70;;;;;;;19.52;44.09;101516.59;5037531;27;96805;-47
2023/06/12 03:08:16;;;;;;;3.87;3.20;;;;;;;19.46;44.08;101521.53;5034761;27;97929;-48
2023/06/12 03:10:42;;;;;;;3.30;3.00;;;;;;;19.40;44.27;101521.59;5034019;27;96976;-48
2023/06/12 03:13:08;;;;;;;3.67;3.47;;;;;;;19.40;44.21;101520.84;5034841;27;96675;-47
2023/06/12 03:15:34;;;;;;;3.17;2.93;;;;;;;19.40;44.29;101529.97;5036267;27;96946;-48
2023/06/12 03:18:00;;;;;;;3.60;3.20;;;;;;;19.42;44.37;101535.78;5037229;27;97355;-47
2023/06/12 03:20:26;;;;;;;3.53;3.23;;;;;;;19.41;44.33;101534.28;5037493;27;97422;-48
2023/06/12 03:22:52;;;;;;;3.40;3.10;;;;;;;19.40;44.23;101532.75;5036069;27;97376;-48
2023/06/12 03:25:18;;;;;;;3.80;3.10;;;;;;;19.39;44.24;101536.09;5038777;27;97133;-48
2023/06/12 03:27:47;;;;;;;3.47;3.17;;;;;;;19.39;44.58;101533.31;5036427;27;97415;-48
2023/06/12 03:30:12;;;;;;;3.63;3.33;;;;;;;19.38;44.57;101532.53;5035832;27;96729;-48
2023/06/12 03:32:47;;;;;;;2.83;2.63;;;;;;;19.39;45.30;101541.69;5034524;27;97087;-50
2023/06/12 03:35:12;;;;;;;3.63;3.30;;;;;;;19.37;44.71;101533.81;5035732;27;97159;-48
2023/06/12 03:37:38;;;;;;;3.33;3.03;;;;;;;19.36;44.63;101537.91;5035758;27;97048;-48
2023/06/12 03:40:05;;;;;;;3.57;3.27;;;;;;;19.34;44.56;101542.47;5033823;27;97577;-47
2023/06/12 03:42:30;;;;;;;3.73;3.40;;;;;;;19.32;44.74;101545.81;5036198;27;97454;-47
2023/06/12 03:44:55;;;;;;;3.57;3.27;;;;;;;19.32;44.89;101537.44;5034533;27;96984;-48
2023/06/12 03:47:21;;;;;;;4.13;3.83;;;;;;;19.31;44.71;101541.50;5035570;27;97342;-47
2023/06/12 03:49:46;;;;;;;3.50;3.30;;;;;;;19.31;44.85;101538.72;5023094;27;97334;-48
2023/06/12 03:52:12;;;;;;;3.20;3.00;;;;;;;19.32;44.72;101542.25;5034866;27;98425;-48
2023/06/12 03:54:38;;;;;;;3.40;3.20;;;;;;;19.32;45.00;101543.03;5036487;27;97210;-47
2023/06/12 03:57:03;;;;;;;3.60;3.30;;;;;;;19.32;44.98;101540.22;5036241;27;97149;-48
2023/06/12 03:59:29;;;;;;;4.00;3.33;;;;;;;19.32;45.07;101551.41;5036608;27;97225;-48
2023/06/12 04:01:56;;;;;;;3.83;3.53;;;;;;;19.35;45.07;101541.97;5036342;27;97013;-48
2023/06/12 04:04:21;;;;;;;2.97;2.77;;;;;;;19.36;45.13;101548.31;5038314;27;97202;-48
2023/06/12 04:06:47;;;;;;;3.40;3.10;;;;;;;19.38;45.00;101556.91;5030877;27;97387;-47
2023/06/12 04:09:14;;;;;;;3.20;2.90;;;;;;;19.38;45.18;101552.09;5035221;27;97738;-48
2023/06/12 04:11:40;;;;;;;4.20;3.90;;;;;;;19.40;45.10;101552.31;5036022;27;98497;-48
2023/06/12 04:14:06;;;;;;;4.10;3.70;;;;;;;19.43;45.25;101545.66;5038019;27;97127;-48
2023/06/12 04:16:32;;;;;;;3.40;3.20;;;;;;;19.47;45.10;101548.13;5036644;27;96872;-48
2023/06/12 04:19:02;;;;;;;3.33;3.13;;;;;;;19.51;45.15;101548.56;5039310;27;98716;-48
2023/06/12 04:21:27;;;;;;;3.77;3.47;;;;;;;19.56;45.17;101552.56;5038799;27;97423;-47
2023/06/12 04:23:53;;;;;;;5.03;4.33;;;;;;;19.58;45.12;101552.78;5038250;27;97090;-47
2023/06/12 04:26:20;;;;;;;6.60;4.30;;;;;;;19.61;45.24;101552.47;5041264;27;97181;-48
2023/06/12 04:28:46;;;;;;;4.13;3.83;;;;;;;19.65;45.33;101552.91;5037080;27;97244;-47
2023/06/12 04:31:15;;;;;;;4.30;3.90;;;;;;;19.70;45.18;101554.09;5036930;27;97384;-47
2023/06/12 04:33:41;;;;;;;5.57;3.63;;;;;;;19.73;45.37;101556.56;5038599;27;96712;-48
2023/06/12 04:36:07;;;;;;;4.17;3.33;;;;;;;19.76;45.53;101558.31;5039575;27;97162;-48
2023/06/12 04:38:38;;;;;;;3.53;3.30;;;;;;;19.78;45.32;101561.31;5037183;27;98638;-48
2023/06/12 04:41:05;;;;;;;4.20;3.80;;;;;;;19.80;45.29;101571.94;5036676;27;97216;-47
2023/06/12 04:43:31;;;;;;;4.37;3.97;;;;;;;19.83;45.49;101562.50;5035528;27;96998;-47
2023/06/12 04:45:57;;;;;;;3.83;3.53;;;;;;;19.86;45.46;101561.41;5037089;27;96881;-48
2023/06/12 04:48:23;;;;;;;4.07;3.77;;;;;;;19.88;45.65;101558.84;5036821;27;97418;-48
2023/06/12 04:50:50;;;;;;;4.30;4.00;;;;;;;19.93;45.56;101561.53;5032565;27;97528;-48
2023/06/12 04:53:19;;;;;;;4.13;3.83;;;;;;;19.98;45.63;101565.53;5038365;27;97206;-48
2023/06/12 04:55:50;;;;;;;4.63;4.30;;;;;;;20.03;45.74;101559.81;5036549;27;97010;-48
2023/06/12 04:58:18;;;;;;;7.63;4.60;;;;;;;20.10;45.80;101564.78;5034914;27;96980;-47
2023/06/12 05:00:47;;;;;;;4.77;4.37;;;;;;;20.19;45.88;101560.78;5039155;27;98468;-48
2023/06/12 05:03:16;;;;;;;4.70;4.30;;;;;;;20.31;45.59;101561.38;5038972;27;97222;-47
2023/06/12 05:05:42;;;;;;;5.63;4.63;;;;;;;20.38;45.65;101572.63;5037881;27;96973;-48
2023/06/12 05:08:07;;;;;;;4.50;4.20;;;;;;;20.48;45.49;101565.31;5035223;27;97044;-48
2023/06/12 05:10:32;;;;;;;6.23;4.70;;;;;;;20.61;45.48;101562.50;5034165;27;97679;-48
2023/06/12 05:12:58;;;;;;;4.57;4.27;;;;;;;20.74;45.53;101561.72;5037162;27;97784;-48
2023/06/12 05:15:23;;;;;;;4.80;4.40;;;;;;;20.88;45.23;101566.72;5034856;27;97113;-48
2023/06/12 05:17:48;;;;;;;6.07;5.37;;;;;;;21.05;45.14;101571.25;5034331;27;97137;-47
2023/06/12 05:20:15;;;;;;;4.93;4.53;;;;;;;21.18;44.90;101569.16;5038164;27;103811;-47
2023/06/12 05:22:41;;;;;;;4.40;4.10;;;;;;;21.27;44.86;101565.13;5034725;27;97196;-48
2023/06/12 05:25:07;;;;;;;5.13;4.73;;;;;;;21.40;44.86;101573.47;5036130;27;97333;-47
2023/06/12 05:27:32;;;;;;;4.90;4.50;;;;;;;21.49;44.80;101570.19;5037290;27;97563;-48
2023/06/12 05:29:57;;;;;;;6.40;5.40;;;;;;;21.57;44.86;101571.00;5034242;27;97553;-48
2023/06/12 05:32:23;;;;;;;5.30;4.90;;;;;;;21.66;44.64;101573.31;5035853;27;96734;-48
2023/06/12 05:34:48;;;;;;;5.07;4.67;;;;;;;21.74;44.38;101578.97;5033319;27;96836;-48
2023/06/12 05:37:13;;;;;;;5.70;5.20;;;;;;;21.81;44.22;101576.22;5035463;27;97070;-48
2023/06/12 05:39:38;;;;;;;6.37;5.23;;;;;;;21.91;44.06;101573.72;5036624;27;113182;-48
2023/06/12 05:42:04;;;;;;;5.03;4.53;;;;;;;21.96;43.99;101578.41;5035696;27;97245;-48
2023/06/12 05:44:31;;;;;;;6.47;5.20;;;;;;;21.99;43.76;101577.31;5037413;27;97100;-48
2023/06/12 05:46:56;;;;;;;4.50;4.20;;;;;;;22.00;43.83;101579.56;5037759;27;97575;-48
2023/06/12 05:49:22;;;;;;;5.67;5.17;;;;;;;22.03;43.62;101577.72;5036954;27;96874;-48
2023/06/12 05:51:47;;;;;;;5.63;5.07;;;;;;;22.03;43.52;101581.28;5036969;27;97556;-48
2023/06/12 05:54:12;;;;;;;5.43;4.97;;;;;;;21.98;43.48;101587.03;5035571;27;97158;-48
2023/06/12 05:56:38;;;;;;;5.27;4.80;;;;;;;21.96;43.46;101584.78;5035649;27;97190;-48
2023/06/12 05:59:03;;;;;;;7.40;5.80;;;;;;;21.96;43.60;101590.38;5039942;27;97250;-48
2023/06/12 06:01:31;;;;;;;4.70;4.40;;;;;;;21.95;43.72;101588.88;5037510;27;97065;-48
2023/06/12 06:03:58;;;;;;;5.63;5.17;;;;;;;22.00;43.80;101590.78;5038160;27;97151;-48
2023/06/12 06:06:24;;;;;;;5.80;5.30;;;;;;;22.08;43.73;101585.97;5034698;27;97042;-48
2023/06/12 06:08:49;;;;;;;5.30;4.90;;;;;;;22.20;43.71;101590.00;5039169;27;108159;-49
2023/06/12 06:11:15;;;;;;;5.50;5.00;;;;;;;22.31;43.52;101594.53;5041070;27;96748;-48
2023/06/12 06:13:42;;;;;;;6.20;5.53;;;;;;;22.43;43.44;101594.97;5038325;27;96832;-48
2023/06/12 06:16:08;;;;;;;9.13;5.30;;;;;;;22.54;43.37;101603.09;5036721;27;97556;-48
2023/06/12 06:18:33;;;;;;;7.23;5.20;;;;;;;22.68;43.32;101605.22;5038270;27;98399;-48
2023/06/12 06:20:58;;;;;;;5.10;4.70;;;;;;;22.80;43.19;101603.59;5035818;27;96774;-48
2023/06/12 06:23:24;;;;;;;5.93;5.33;;;;;;;22.94;42.92;101607.00;5040688;27;97498;-48
2023/06/12 06:25:49;;;;;;;6.10;4.93;;;;;;;23.02;42.44;101607.81;5038753;27;99346;-48
2023/06/12 06:28:15;;;;;;;5.80;4.53;;;;;;;23.08;42.13;101617.56;5033751;27;97214;-48
2023/06/12 06:30:41;;;;;;;5.10;4.70;;;;;;;23.10;42.14;101619.78;5035745;27;97099;-48
2023/06/12 06:33:06;;;;;;;5.40;4.73;;;;;;;23.17;42.25;101630.31;5036013;27;97435;-48
2023/06/12 06:35:31;;;;;;;5.30;4.80;;;;;;;23.25;42.25;101619.06;5036406;27;97411;-48
2023/06/12 06:37:57;;;;;;;5.60;4.57;;;;;;;23.41;42.02;101626.25;5035058;27;98529;-48
2023/06/12 06:40:22;;;;;;;4.93;4.40;;;;;;;23.46;41.66;101625.34;5037887;27;97056;-48
2023/06/12 06:42:47;;;;;;;4.93;4.53;;;;;;;23.50;41.93;101628.53;5038665;27;96920;-48
2023/06/12 06:45:13;;;;;;;6.50;4.43;;;;;;;23.52;41.64;101640.72;5035825;27;96892;-48
2023/06/12 06:47:38;;;;;;;4.87;4.37;;;;;;;23.50;41.34;101640.50;5033825;27;97018;-48
2023/06/12 06:50:04;;;;;;;5.07;4.57;;;;;;;23.53;41.17;101633.78;5035646;27;97328;-48
2023/06/12 06:52:29;;;;;;;4.13;3.83;;;;;;;23.52;40.97;101640.72;5035813;27;97700;-48
2023/06/12 06:54:55;;;;;;;8.73;4.60;;;;;;;23.54;40.97;101640.91;5034196;27;97978;-48
2023/06/12 06:57:22;;;;;;;5.10;4.70;;;;;;;23.65;40.75;101645.41;5036337;27;111415;-48
2023/06/12 06:59:47;;;;;;;5.30;4.80;;;;;;;23.73;40.72;101646.16;5034809;27;97092;-48
2023/06/12 07:02:13;;;;;;;6.47;4.53;;;;;;;23.85;40.71;101639.59;5033784;27;96872;-48
2023/06/12 07:04:38;;;;;;;4.57;4.20;;;;;;;24.00;40.70;101646.53;5036674;27;96882;-48
2023/06/12 07:07:03;;;;;;;4.53;4.13;;;;;;;24.19;40.53;101641.28;5035837;27;110724;-48
2023/06/12 07:09:29;;;;;;;4.80;4.50;;;;;;;24.36;40.31;101639.38;5035298;27;97240;-48
2023/06/12 07:11:54;;;;;;;4.80;4.40;;;;;;;24.54;40.24;101641.03;5033230;27;97392;-48
2023/06/12 07:14:20;;;;;;;4.70;4.30;;;;;;;24.71;40.03;101634.78;5035953;27;98523;-48
2023/06/12 07:16:45;;;;;;;5.40;4.90;;;;;;;24.83;39.54;101630.28;5034712;27;98431;-48
2023/06/12 07:19:10;;;;;;;4.90;4.50;;;;;;;24.98;39.66;101629.44;5033928;27;96753;-48
2023/06/12 07:21:36;;;;;;;4.80;4.40;;;;;;;25.09;39.69;101634.66;5035687;27;97489;-48
2023/06/12 07:24:02;;;;;;;4.47;4.17;;;;;;;25.24;39.47;101635.31;5036191;27;96693;-48
2023/06/12 07:26:28;;;;;;;5.00;4.60;;;;;;;25.39;39.19;101634.47;5036235;27;99175;-48
2023/06/12 07:28:54;;;;;;;4.47;4.07;;;;;;;25.51;39.07;101634.81;5036301;27;97250;-48
2023/06/12 07:31:20;;;;;;;6.77;5.53;;;;;;;25.63;38.72;101635.84;5035951;27;97082;-48
2023/06/12 07:33:46;;;;;;;4.50;4.13;;;;;;;25.77;38.36;101635.00;5033614;27;98512;-48
2023/06/12 07:36:11;;;;;;;4.07;3.77;;;;;;;25.90;38.21;101636.75;5038880;27;97571;-48
2023/06/12 07:38:36;;;;;;;4.20;3.80;;;;;;;26.04;38.04;101635.88;5039655;27;97111;-48
2023/06/12 07:41:02;;;;;;;4.03;3.63;;;;;;;26.23;37.82;101637.44;5037778;27;97358;-48
2023/06/12 07:43:29;;;;;;;4.20;3.80;;;;;;;26.36;37.84;101629.41;5038386;27;97777;-48
2023/06/12 07:45:55;;;;;;;4.60;4.23;;;;;;;26.49;37.41;101631.88;5037710;27;98018;-48
2023/06/12 07:48:21;;;;;;;4.10;3.70;;;;;;;26.63;37.30;101635.09;5037350;27;97044;-48
2023/06/12 07:50:46;;;;;;;6.07;4.67;;;;;;;26.72;36.93;101640.84;5034035;27;97901;-49
2023/06/12 07:53:12;;;;;;;4.30;3.93;;;;;;;26.83;36.45;101633.94;5037734;27;98633;-48
2023/06/12 07:55:37;;;;;;;4.07;3.67;;;;;;;26.94;36.70;101624.97;5037999;27;103808;-48
2023/06/12 07:58:02;;;;;;;4.67;3.70;;;;;;;27.04;36.47;101630.69;5037715;27;97048;-48
2023/06/12 08:00:28;;;;;;;4.10;3.70;;;;;;;27.15;36.47;101630.88;5040498;27;97084;-48
2023/06/12 08:02:59;;;;;;;3.57;3.27;;;;;;;27.26;35.99;101633.16;5037832;27;97109;-48
2023/06/12 08:05:26;;;;;;;3.67;3.10;;;;;;;27.33;35.60;101629.50;5036600;27;97254;-48
2023/06/12 08:07:51;;;;;;;4.53;3.43;;;;;;;27.37;35.23;101637.56;5035932;27;97306;-48
2023/06/12 08:10:16;;;;;;;3.87;3.47;;;;;;;27.47;35.25;101635.53;5037817;27;96968;-48
2023/06/12 08:12:42;;;;;;;4.57;3.40;;;;;;;27.57;35.19;101635.56;5037494;27;97001;-48
2023/06/12 08:15:08;;;;;;;4.20;3.37;;;;;;;27.63;34.90;101633.97;5037437;27;97223;-48
2023/06/12 08:17:36;;;;;;;3.20;3.00;;;;;;;27.69;34.77;101634.44;5039344;27;97384;-48
2023/06/12 08:20:08;;;;;;;3.70;3.40;;;;;;;27.77;34.51;101632.22;5037805;27;97010;-48
2023/06/12 08:22:34;;;;;;;3.20;3.00;;;;;;;27.84;34.36;101630.63;5039055;27;97122;-48
2023/06/12 08:25:02;;;;;;;3.83;3.43;;;;;;;27.94;34.18;101617.97;5036226;27;97218;-48
2023/06/12 08:27:27;;;;;;;3.27;2.97;;;;;;;28.02;34.08;101624.28;5038825;27;97248;-48
2023/06/12 08:29:52;;;;;;;3.30;3.10;;;;;;;28.15;33.83;101631.63;5036642;27;97157;-49
2023/06/12 08:32:18;;;;;;;3.37;3.07;;;;;;;28.25;33.75;101629.53;5037098;27;97011;-48
2023/06/12 08:34:43;;;;;;;3.97;3.00;;;;;;;28.35;33.27;101627.47;5040398;27;97117;-48
2023/06/12 08:37:08;;;;;;;3.10;2.77;;;;;;;28.45;32.98;101624.63;5038485;27;96869;-48
2023/06/12 08:39:34;;;;;;;3.13;2.93;;;;;;;28.54;32.85;101624.63;5043099;27;97275;-48
2023/06/12 08:42:08;;;;;;;3.30;3.00;;;;;;;28.66;32.17;101619.88;5037398;27;98609;-48
2023/06/12 08:44:34;;;;;;;3.10;2.60;;;;;;;28.77;32.48;101616.44;5036593;27;96756;-48
2023/06/12 08:47:02;;;;;;;2.47;2.27;;;;;;;28.88;32.01;101615.81;5039092;27;97191;-48
2023/06/12 08:49:29;;;;;;;2.70;2.50;;;;;;;29.00;31.76;101627.28;5036724;27;96836;-48
2023/06/12 08:51:54;;;;;;;3.57;2.63;;;;;;;29.13;31.73;101617.56;5034904;27;98890;-48
2023/06/12 08:54:20;;;;;;;4.20;2.60;;;;;;;29.22;31.19;101622.50;5038466;27;97351;-48
2023/06/12 08:56:46;;;;;;;5.30;2.50;;;;;;;29.34;30.74;101609.91;5038819;27;96634;-48
2023/06/12 08:59:12;;;;;;;3.97;2.57;;;;;;;29.37;30.57;101607.97;5035132;27;96743;-48
2023/06/12 09:01:39;;;;;;;2.73;2.53;;;;;;;29.41;30.22;101603.31;5036243;27;97374;-49
2023/06/12 09:04:13;;;;;;;3.13;2.93;;;;;;;29.44;29.64;101621.94;5036994;27;97576;-48
2023/06/12 09:06:40;;;;;;;2.40;2.20;;;;;;;29.48;29.70;101616.56;5037824;27;97430;-48
2023/06/12 09:09:05;;;;;;;2.67;2.57;;;;;;;29.59;30.01;101624.44;5037644;27;97249;-48
2023/06/12 09:11:35;;;;;;;2.97;2.70;;;;;;;29.73;29.74;101621.81;5035338;27;97241;-48
2023/06/12 09:14:01;;;;;;;2.70;2.60;;;;;;;29.87;29.70;101613.56;5036040;27;97259;-48
2023/06/12 09:16:27;;;;;;;6.17;2.93;;;;;;;29.93;28.83;101623.22;5039954;27;97427;-48
2023/06/12 09:18:53;;;;;;;2.67;2.47;;;;;;;29.99;29.09;101617.97;5040869;27;97218;-48
2023/06/12 09:21:21;;;;;;;3.60;2.50;;;;;;;29.92;28.85;101624.59;5034128;27;98847;-48
2023/06/12 09:23:50;;;;;;;2.70;2.50;;;;;;;29.99;28.62;101620.06;5037266;27;97064;-48
2023/06/12 09:26:16;;;;;;;2.70;2.50;;;;;;;30.08;28.92;101611.47;5036400;27;97128;-48
2023/06/12 09:28:44;;;;;;;3.10;2.80;;;;;;;30.19;28.56;101605.13;5039761;27;97089;-48
2023/06/12 09:31:11;;;;;;;2.67;2.47;;;;;;;30.28;28.08;101620.59;5037478;27;97523;-48
2023/06/12 09:33:39;;;;;;;5.80;2.33;;;;;;;30.41;27.87;101619.31;5038373;27;97704;-49
2023/06/12 09:36:05;;;;;;;2.40;2.30;;;;;;;30.58;27.72;101627.56;5035945;27;97168;-48
2023/06/12 09:38:32;;;;;;;2.50;2.30;;;;;;;30.67;26.96;101629.56;5038596;27;97483;-48
2023/06/12 09:40:58;;;;;;;2.30;2.20;;;;;;;30.75;26.80;101622.34;5034511;27;96832;-48
2023/06/12 09:43:26;;;;;;;2.57;2.27;;;;;;;30.85;26.86;101622.22;5036899;27;97685;-49
2023/06/12 09:45:52;;;;;;;2.40;2.20;;;;;;;30.94;26.62;101619.31;5035306;27;97077;-48
2023/06/12 09:48:17;;;;;;;3.43;3.07;;;;;;;30.96;26.58;101622.28;5037535;27;97511;-48
2023/06/12 09:50:42;;;;;;;2.77;2.53;;;;;;;31.01;26.57;101638.25;5036780;27;97231;-48
2023/06/12 09:53:09;;;;;;;2.20;2.00;;;;;;;31.19;26.25;101626.53;5036038;27;97256;-48
2023/06/12 09:55:36;;;;;;;2.60;2.40;;;;;;;31.39;26.01;101622.13;5036516;27;96624;-48
2023/06/12 09:58:07;;;;;;;2.37;2.17;;;;;;;31.50;25.64;101627.06;5034653;27;97079;-48
2023/06/12 10:00:33;;;;;;;2.70;2.50;;;;;;;31.55;25.91;101623.88;5035730;27;97634;-48
2023/06/12 10:03:05;;;;;;;2.50;2.10;;;;;;;31.59;25.78;101629.06;5035848;27;98584;-48
2023/06/12 10:05:37;;;;;;;4.70;2.13;;;;;;;31.46;24.77;101623.97;5035320;27;97042;-48
2023/06/12 10:08:06;;;;;;;3.30;2.60;;;;;;;31.45;25.58;101628.19;5036947;27;99044;-48
2023/06/12 10:10:34;;;;;;;2.73;2.53;;;;;;;31.55;25.39;101629.56;5035300;27;97002;-48
2023/06/12 10:13:03;;;;;;;2.93;2.73;;;;;;;31.66;25.19;101628.06;5033916;27;97088;-48
2023/06/12 10:15:30;;;;;;;2.73;2.30;;;;;;;31.70;24.79;101631.16;5038417;27;96772;-48
2023/06/12 10:17:57;;;;;;;1.93;1.83;;;;;;;31.77;24.74;101621.63;5035151;27;96752;-48
2023/06/12 10:20:23;;;;;;;5.80;1.93;;;;;;;31.76;24.55;101622.97;5037185;27;97468;-48
2023/06/12 10:22:51;;;;;;;2.10;2.00;;;;;;;31.78;24.25;101611.72;5036610;27;96993;-48
2023/06/12 10:25:17;;;;;;;5.40;2.53;;;;;;;31.85;24.37;101615.69;5036722;27;97567;-48
2023/06/12 10:27:43;;;;;;;2.87;2.63;;;;;;;31.80;23.99;101595.50;5038192;27;97055;-48
2023/06/12 10:30:10;;;;;;;2.13;2.00;;;;;;;31.64;23.84;101619.41;5037337;27;97681;-48
2023/06/12 10:32:36;;;;;;;2.57;2.37;;;;;;;31.55;23.74;101609.63;5033024;27;97162;-48
2023/06/12 10:35:02;;;;;;;1.90;1.63;;;;;;;31.61;23.82;101609.25;5037156;27;97020;-48
2023/06/12 10:37:27;;;;;;;2.30;2.20;;;;;;;31.54;23.58;101598.88;5033350;27;97263;-48
2023/06/12 10:40:03;;;;;;;3.27;2.13;;;;;;;31.59;23.06;101600.59;5036352;27;97078;-48
2023/06/12 10:42:45;;;;;;;2.50;1.83;;;;;;;31.72;22.87;101589.31;5036759;27;96704;-48
2023/06/12 10:45:19;;;;;;;1.53;1.43;;;;;;;31.80;23.02;101595.50;5036380;27;97207;-48
2023/06/12 10:48:06;;;;;;;2.23;2.03;;;;;;;31.90;22.97;101597.47;5037208;27;97246;-48
2023/06/12 10:50:41;;;;;;;1.67;1.57;;;;;;;31.98;22.81;101598.72;5033816;27;97571;-48
2023/06/12 10:53:11;;;;;;;2.30;2.20;;;;;;;32.03;23.24;101585.44;5035046;27;97542;-48
2023/06/12 10:55:37;;;;;;;2.20;2.10;;;;;;;32.00;23.17;101589.56;5036412;27;97115;-48
2023/06/12 10:58:09;;;;;;;2.80;2.60;;;;;;;31.90;22.92;101595.38;5035558;27;96768;-48
2023/06/12 11:00:37;;;;;;;2.77;2.07;;;;;;;31.92;23.07;101584.09;5035277;27;98487;-48
2023/06/12 11:03:10;;;;;;;2.00;1.90;;;;;;;31.97;22.86;101587.94;5045202;27;98205;-48
2023/06/12 11:05:35;;;;;;;2.33;2.13;;;;;;;31.96;22.35;101592.16;5038033;27;96764;-48
2023/06/12 11:08:06;;;;;;;2.23;2.03;;;;;;;31.76;22.03;101581.03;5035390;27;96646;-48
2023/06/12 11:10:33;;;;;;;2.43;2.33;;;;;;;31.77;22.58;101591.06;5039743;27;97875;-49
2023/06/12 11:13:00;;;;;;;2.20;2.03;;;;;;;31.87;22.86;101584.50;5038573;27;98019;-48
2023/06/12 11:15:26;;;;;;;2.43;2.23;;;;;;;31.89;22.44;101582.47;5046580;27;97760;-48
2023/06/12 11:17:51;;;;;;;1.80;1.70;;;;;;;31.95;22.34;101582.13;5042440;27;97260;-48
2023/06/12 11:20:22;;;;;;;2.00;1.90;;;;;;;32.02;21.86;101590.41;5043797;27;97412;-48
2023/06/12 11:22:56;;;;;;;2.43;2.33;;;;;;;32.12;22.34;101581.72;5037694;27;98448;-48